Terminal Aerodrome Forecast
Issued by NWS

Home | Current Version | Previous Version | Text Only | Print | Product List | Glossary Off
Versions: 1 2 3 4 5 6 7 8 9 10 11 12 13 14

000
FTUS43 KGRB 142328
TAFAUW
TAF
KAUW 142328Z 1500/1524 19008KT P6SM SKC WS010/23035KT
     FM150600 25008KT 6SM BR BKN012 WS010/24035KT
     FM151000 26007KT 6SM BR BKN005 WS010/28030KT
     FM151400 28008G15KT P6SM BKN018
     FM152000 32008G15KT P6SM BKN020=

USA.gov is the U.S. government's official web portal to all federal, state and local government web resources and services.